^^
Your Local Weather - Clay, NY Station Historical Data
Daily Summary for January 14, 2017 Units:  English    Metric   Both
« Previous Day
Next Day »
Daily Weekly Monthly Yearly Custom
  High: Low: Average:
Temperature: 25.6 °F 14.2 °F 20.2 °F
Dew Point: 18.4 °F 7.8 °F 13 °F
Humidity: 88% 64% 74%
Wind Speed: 3.0mph 0.0mph 0.7mph
Wind Gust: 5.0mph - -
Wind- - East
Pressure: 30.71 in 30.31 in -
Precipitation: 0.00 in    
Historical Graphs
 
 
Tabular Data for January 14, 2017
Time Temperature Dew Point Pressure Wind Wind Speed Wind Gust Humidity Rainfall Rate (Hourly) solar
00:04 20.5 °F 10.6 °F 30.71 in Calm     65% 0.00 in 0 W/m2
00:10 20.3 °F 10.4 °F 30.71 in Calm     65% 0.00 in 0 W/m2
00:16 20.2 °F 10.3 °F 30.71 in Calm     65% 0.00 in 0 W/m2
00:22 20.1 °F 10.6 °F 30.71 in Calm   3.0 mph 66% 0.00 in 0 W/m2
00:28 20.3 °F 10.4 °F 30.71 in North 2.0 mph 3.0 mph 65% 0.00 in 0 W/m2
00:34 20.2 °F 10.0 °F 30.71 in North 1.0 mph 2.0 mph 64% 0.00 in 0 W/m2
00:40 19.9 °F 10.0 °F 30.71 in North 1.0 mph 1.0 mph 65% 0.00 in 0 W/m2
00:46 19.6 °F 9.4 °F 30.71 in Calm   1.0 mph 64% 0.00 in 0 W/m2
00:52 19.4 °F 9.5 °F 30.71 in Calm     65% 0.00 in 0 W/m2
00:58 19.1 °F 9.6 °F 30.71 in Calm     66% 0.00 in 0 W/m2
01:04 18.9 °F 9.7 °F 30.70 in Calm     67% 0.00 in 0 W/m2
01:10 18.7 °F 9.2 °F 30.70 in Calm     66% 0.00 in 0 W/m2
01:16 18.6 °F 9.1 °F 30.70 in Calm     66% 0.00 in 0 W/m2
01:22 18.5 °F 9.0 °F 30.70 in NE 1.0 mph 1.0 mph 66% 0.00 in 0 W/m2
01:28 18.4 °F 8.6 °F 30.71 in NE 1.0 mph 2.0 mph 65% 0.00 in 0 W/m2
01:34 18.3 °F 8.8 °F 30.71 in NE 1.0 mph 1.0 mph 66% 0.00 in 0 W/m2
01:40 18.1 °F 8.3 °F 30.71 in NNE 1.0 mph 2.0 mph 65% 0.00 in 0 W/m2
01:46 18.0 °F 8.5 °F 30.71 in NNE 1.0 mph 3.0 mph 66% 0.00 in 0 W/m2
01:52 17.8 °F 8.7 °F 30.71 in NNE 1.0 mph 1.0 mph 67% 0.00 in 0 W/m2
01:58 17.6 °F 8.8 °F 30.70 in NNE 1.0 mph 1.0 mph 68% 0.00 in 0 W/m2
02:04 17.4 °F 8.6 °F 30.71 in Calm   1.0 mph 68% 0.00 in 0 W/m2
02:10 17.3 °F 8.9 °F 30.71 in Calm     69% 0.00 in 0 W/m2
02:16 17.1 °F 9.0 °F 30.71 in ENE 1.0 mph 2.0 mph 70% 0.00 in 0 W/m2
02:22 17.1 °F 9.3 °F 30.70 in ENE 1.0 mph 1.0 mph 71% 0.00 in 0 W/m2
02:28 16.9 °F 8.8 °F 30.70 in ENE 1.0 mph 1.0 mph 70% 0.00 in 0 W/m2
02:34 16.8 °F 9.0 °F 30.70 in ENE 1.0 mph 1.0 mph 71% 0.00 in 0 W/m2
02:40 16.7 °F 8.6 °F 30.70 in ENE 1.0 mph 3.0 mph 70% 0.00 in 0 W/m2
02:46 16.7 °F 8.6 °F 30.70 in East 1.0 mph 3.0 mph 70% 0.00 in 0 W/m2
02:52 16.7 °F 8.6 °F 30.70 in NE 1.0 mph 3.0 mph 70% 0.00 in 0 W/m2
02:58 16.5 °F 8.4 °F 30.70 in SE 1.0 mph 3.0 mph 70% 0.00 in 0 W/m2
03:04 16.3 °F 8.5 °F 30.70 in SE 1.0 mph 2.0 mph 71% 0.00 in 0 W/m2
03:10 16.2 °F 8.4 °F 30.70 in Calm     71% 0.00 in 0 W/m2
03:16 16.1 °F 8.3 °F 30.70 in ENE 1.0 mph 2.0 mph 71% 0.00 in 0 W/m2
03:22 16.0 °F 8.3 °F 30.70 in East 1.0 mph 1.0 mph 71% 0.00 in 0 W/m2
03:28 15.9 °F 7.8 °F 30.69 in East 1.0 mph 3.0 mph 70% 0.00 in 0 W/m2
03:34 15.8 °F 8.1 °F 30.69 in SE 2.0 mph 3.0 mph 71% 0.00 in 0 W/m2
03:40 15.7 °F 8.0 °F 30.69 in ENE 1.0 mph 1.0 mph 71% 0.00 in 0 W/m2
03:46 15.6 °F 8.2 °F 30.69 in East 1.0 mph 3.0 mph 72% 0.00 in 0 W/m2
03:52 15.4 °F 8.0 °F 30.69 in East 1.0 mph 1.0 mph 72% 0.00 in 0 W/m2
03:58 15.3 °F 8.2 °F 30.68 in East 1.0 mph 1.0 mph 73% 0.00 in 0 W/m2
04:04 15.2 °F 8.1 °F 30.69 in ENE 1.0 mph 3.0 mph 73% 0.00 in 0 W/m2
04:10 15.2 °F 8.4 °F 30.68 in ENE 1.0 mph 2.0 mph 74% 0.00 in 0 W/m2
04:14 15.0 °F 8.2 °F 30.68 in ENE 1.0 mph 2.0 mph 74% 0.00 in 0 W/m2
04:20 15.0 °F 8.2 °F 30.68 in ENE 1.0 mph 1.0 mph 74% 0.00 in 0 W/m2
04:26 14.9 °F 8.4 °F 30.68 in Calm   2.0 mph 75% 0.00 in 0 W/m2
04:32 14.8 °F 8.3 °F 30.68 in ENE 1.0 mph 3.0 mph 75% 0.00 in 0 W/m2
04:38 14.8 °F 8.3 °F 30.68 in ENE 1.0 mph 3.0 mph 75% 0.00 in 0 W/m2
04:44 14.7 °F 8.2 °F 30.68 in ENE 1.0 mph 2.0 mph 75% 0.00 in 0 W/m2
04:50 14.7 °F 7.9 °F 30.68 in ENE 1.0 mph 1.0 mph 74% 0.00 in 0 W/m2
04:56 14.6 °F 8.1 °F 30.68 in ENE 1.0 mph 1.0 mph 75% 0.00 in 0 W/m2
05:02 14.4 °F 7.9 °F 30.67 in Calm     75% 0.00 in 0 W/m2
05:08 14.2 °F 8.0 °F 30.67 in Calm   1.0 mph 76% 0.00 in 0 W/m2
05:14 14.2 °F 8.0 °F 30.67 in Calm   1.0 mph 76% 0.00 in 0 W/m2
05:20 14.3 °F 8.1 °F 30.67 in Calm   3.0 mph 76% 0.00 in 0 W/m2
05:26 14.3 °F 7.8 °F 30.67 in ENE 1.0 mph 3.0 mph 75% 0.00 in 0 W/m2
05:32 14.4 °F 7.9 °F 30.67 in East 1.0 mph 1.0 mph 75% 0.00 in 0 W/m2
05:38 14.4 °F 7.9 °F 30.67 in East 1.0 mph 2.0 mph 75% 0.00 in 0 W/m2
05:44 14.4 °F 7.9 °F 30.67 in East 1.0 mph 1.0 mph 75% 0.00 in 0 W/m2
05:50 14.3 °F 7.8 °F 30.67 in Calm     75% 0.00 in 0 W/m2
05:56 14.3 °F 7.8 °F 30.67 in East 1.0 mph 1.0 mph 75% 0.00 in 0 W/m2
06:02 14.4 °F 8.2 °F 30.67 in East 1.0 mph 1.0 mph 76% 0.00 in 0 W/m2
06:08 14.5 °F 8.3 °F 30.66 in ENE 1.0 mph 1.0 mph 76% 0.00 in 0 W/m2
06:14 14.5 °F 8.0 °F 30.66 in ENE 1.0 mph 3.0 mph 75% 0.00 in 0 W/m2
06:20 14.5 °F 8.3 °F 30.66 in East 1.0 mph 1.0 mph 76% 0.00 in 0 W/m2
06:26 14.4 °F 8.2 °F 30.66 in East 1.0 mph 2.0 mph 76% 0.00 in 0 W/m2
06:32 14.3 °F 8.1 °F 30.66 in East 1.0 mph 2.0 mph 76% 0.00 in 0 W/m2
06:38 14.2 °F 8.0 °F 30.66 in East 1.0 mph 2.0 mph 76% 0.00 in 0 W/m2
06:44 14.2 °F 8.0 °F 30.66 in East 1.0 mph 1.0 mph 76% 0.00 in 0 W/m2
06:50 14.2 °F 8.3 °F 30.66 in Calm     77% 0.00 in 0 W/m2
06:56 14.3 °F 8.4 °F 30.66 in Calm     77% 0.00 in 0 W/m2
07:02 14.2 °F 8.3 °F 30.66 in Calm     77% 0.00 in 0 W/m2
07:08 14.3 °F 8.4 °F 30.65 in Calm     77% 0.00 in 0 W/m2
07:14 14.2 °F 8.6 °F 30.66 in Calm     78% 0.00 in 0 W/m2
07:20 14.3 °F 8.7 °F 30.66 in Calm     78% 0.00 in 0 W/m2
07:26 14.5 °F 8.6 °F 30.66 in Calm     77% 0.00 in 0 W/m2
07:32 14.8 °F 8.9 °F 30.65 in Calm     77% 0.00 in 0 W/m2
07:38 15.0 °F 9.4 °F 30.65 in Calm   2.0 mph 78% 0.00 in 0 W/m2
07:44 15.1 °F 9.2 °F 30.64 in ESE 1.0 mph 2.0 mph 77% 0.00 in 7 W/m2
07:50 15.1 °F 9.2 °F 30.64 in ENE 1.0 mph 1.0 mph 77% 0.00 in 11 W/m2
07:56 15.2 °F 9.0 °F 30.64 in NE 1.0 mph 2.0 mph 76% 0.00 in 16 W/m2
08:02 15.2 °F 9.3 °F 30.65 in NE 1.0 mph 2.0 mph 77% 0.00 in 21 W/m2
08:08 15.4 °F 9.5 °F 30.65 in ESE 1.0 mph 2.0 mph 77% 0.00 in 21 W/m2
08:14 15.4 °F 9.5 °F 30.64 in ESE 1.0 mph 1.0 mph 77% 0.00 in 19 W/m2
08:20 15.4 °F 9.2 °F 30.64 in ENE 1.0 mph 1.0 mph 76% 0.00 in 26 W/m2
08:26 15.5 °F 9.6 °F 30.64 in ENE 1.0 mph 2.0 mph 77% 0.00 in 44 W/m2
08:32 15.6 °F 9.7 °F 30.63 in ENE 1.0 mph 2.0 mph 77% 0.00 in 62 W/m2
08:38 15.6 °F 9.7 °F 30.63 in ENE 1.0 mph 3.0 mph 77% 0.00 in 79 W/m2
08:44 15.9 °F 10.0 °F 30.63 in ENE 2.0 mph 2.0 mph 77% 0.00 in 81 W/m2
08:50 16.1 °F 10.2 °F 30.63 in East 1.0 mph 2.0 mph 77% 0.00 in 104 W/m2
08:56 16.4 °F 10.4 °F 30.63 in East 1.0 mph 2.0 mph 77% 0.00 in 135 W/m2
09:02 16.7 °F 10.4 °F 30.63 in East 1.0 mph 1.0 mph 76% 0.00 in 93 W/m2
09:08 16.8 °F 10.5 °F 30.62 in SE 1.0 mph 3.0 mph 76% 0.00 in 132 W/m2
09:14 17.2 °F 10.9 °F 30.63 in SE 1.0 mph 2.0 mph 76% 0.00 in 86 W/m2
09:20 17.3 °F 10.7 °F 30.63 in SE 1.0 mph 1.0 mph 75% 0.00 in 109 W/m2
09:26 17.5 °F 11.2 °F 30.62 in SE 1.0 mph 1.0 mph 76% 0.00 in 127 W/m2
09:32 17.8 °F 11.2 °F 30.62 in SE 1.0 mph 1.0 mph 75% 0.00 in 135 W/m2
09:38 18.2 °F 11.6 °F 30.61 in SE 1.0 mph 2.0 mph 75% 0.00 in 218 W/m2
09:44 18.3 °F 11.1 °F 30.61 in ENE 1.0 mph 2.0 mph 73% 0.00 in 230 W/m2
09:50 18.6 °F 11.7 °F 30.61 in ENE 2.0 mph 4.0 mph 74% 0.00 in 193 W/m2
09:56 18.7 °F 11.8 °F 30.60 in ENE 2.0 mph 4.0 mph 74% 0.00 in 179 W/m2
10:02 18.7 °F 11.8 °F 30.60 in SE 2.0 mph 2.0 mph 74% 0.00 in 162 W/m2
10:08 19.3 °F 12.4 °F 30.60 in SE 1.0 mph 2.0 mph 74% 0.00 in 220 W/m2
10:14 19.9 °F 12.9 °F 30.60 in NE 1.0 mph 3.0 mph 74% 0.00 in 214 W/m2
10:20 20.0 °F 12.4 °F 30.60 in NE 1.0 mph 1.0 mph 72% 0.00 in 214 W/m2
10:26 20.1 °F 12.5 °F 30.60 in North 1.0 mph 3.0 mph 72% 0.00 in 188 W/m2
10:32 20.3 °F 12.7 °F 30.59 in ENE 1.0 mph 4.0 mph 72% 0.00 in 216 W/m2
10:38 20.3 °F 12.7 °F 30.59 in North 2.0 mph 4.0 mph 72% 0.00 in 176 W/m2
10:44 20.9 °F 13.3 °F 30.58 in NE 1.0 mph 2.0 mph 72% 0.00 in 221 W/m2
10:50 20.9 °F 13.0 °F 30.58 in East 1.0 mph 3.0 mph 71% 0.00 in 144 W/m2
11:44 22.3 °F 14.3 °F 30.53 in ENE 2.0 mph 3.0 mph 71% 0.00 in 167 W/m2
11:50 22.3 °F 14.3 °F 30.52 in ESE 2.0 mph 3.0 mph 71% 0.00 in 171 W/m2
11:56 22.7 °F 14.7 °F 30.52 in East 2.0 mph 2.0 mph 71% 0.00 in 181 W/m2
12:04 22.7 °F 14.4 °F 30.50 in ENE 3.0 mph 3.0 mph 70% 0.00 in 171 W/m2
12:10 23.1 °F 15.1 °F 30.50 in ENE 2.0 mph 2.0 mph 71% 0.00 in 190 W/m2
12:16 23.4 °F 15.1 °F 30.50 in North 1.0 mph 2.0 mph 70% 0.00 in 165 W/m2
12:22 23.7 °F 15.0 °F 30.49 in ENE 1.0 mph 2.0 mph 69% 0.00 in 158 W/m2
12:28 23.8 °F 15.4 °F 30.49 in East 1.0 mph 2.0 mph 70% 0.00 in 153 W/m2
12:34 23.9 °F 15.5 °F 30.48 in ENE 1.0 mph 1.0 mph 70% 0.00 in 130 W/m2
12:40 24.0 °F 15.3 °F 30.48 in ESE 2.0 mph 2.0 mph 69% 0.00 in 139 W/m2
12:46 24.0 °F 15.3 °F 30.47 in ESE 2.0 mph 3.0 mph 69% 0.00 in 135 W/m2
12:52 24.1 °F 15.1 °F 30.46 in ENE 2.0 mph 2.0 mph 68% 0.00 in 139 W/m2
12:58 24.1 °F 15.4 °F 30.47 in East 1.0 mph 2.0 mph 69% 0.00 in 127 W/m2
13:04 24.0 °F 15.0 °F 30.46 in ENE 2.0 mph 5.0 mph 68% 0.00 in 105 W/m2
13:10 24.0 °F 15.0 °F 30.46 in East 2.0 mph 2.0 mph 68% 0.00 in 91 W/m2
13:16 23.9 °F 15.5 °F 30.46 in SE 1.0 mph 2.0 mph 70% 0.00 in 86 W/m2
13:22 23.8 °F 14.8 °F 30.45 in ENE 2.0 mph 4.0 mph 68% 0.00 in 84 W/m2
13:28 23.9 °F 15.5 °F 30.44 in East 2.0 mph 4.0 mph 70% 0.00 in 86 W/m2
13:34 24.1 °F 15.1 °F 30.44 in East 2.0 mph 2.0 mph 68% 0.00 in 83 W/m2
13:40 24.3 °F 15.6 °F 30.44 in East 1.0 mph 2.0 mph 69% 0.00 in 88 W/m2
13:46 24.3 °F 15.3 °F 30.43 in East 2.0 mph 2.0 mph 68% 0.00 in 88 W/m2
13:52 24.4 °F 15.3 °F 30.43 in East 2.0 mph 2.0 mph 68% 0.00 in 84 W/m2
13:58 24.5 °F 15.8 °F 30.43 in SE 1.0 mph 4.0 mph 69% 0.00 in 76 W/m2
14:04 24.6 °F 15.5 °F 30.42 in ESE 2.0 mph 2.0 mph 68% 0.00 in 70 W/m2
14:10 24.8 °F 16.1 °F 30.42 in SSE 2.0 mph 4.0 mph 69% 0.00 in 63 W/m2
14:16 24.7 °F 15.6 °F 30.42 in East 2.0 mph 4.0 mph 68% 0.00 in 58 W/m2
14:22 24.7 °F 16.0 °F 30.41 in East 2.0 mph 3.0 mph 69% 0.00 in 54 W/m2
14:28 24.8 °F 15.7 °F 30.41 in SE 1.0 mph 3.0 mph 68% 0.00 in 56 W/m2
14:34 24.9 °F 16.2 °F 30.41 in ENE 1.0 mph 4.0 mph 69% 0.00 in 56 W/m2
14:40 24.9 °F 15.8 °F 30.40 in East 2.0 mph 2.0 mph 68% 0.00 in 65 W/m2
14:46 24.9 °F 15.5 °F 30.40 in East 3.0 mph 3.0 mph 67% 0.00 in 63 W/m2
14:52 24.8 °F 15.4 °F 30.40 in ESE 3.0 mph 3.0 mph 67% 0.00 in 60 W/m2
14:58 25.1 °F 16.0 °F 30.40 in ESE 2.0 mph 3.0 mph 68% 0.00 in 63 W/m2
15:04 25.2 °F 15.8 °F 30.39 in SE 2.0 mph 3.0 mph 67% 0.00 in 58 W/m2
15:10 25.1 °F 15.7 °F 30.39 in ENE 2.0 mph 2.0 mph 67% 0.00 in 46 W/m2
15:16 25.2 °F 15.8 °F 30.39 in ENE 2.0 mph 2.0 mph 67% 0.00 in 47 W/m2
15:22 25.2 °F 15.8 °F 30.39 in East 1.0 mph 2.0 mph 67% 0.00 in 54 W/m2
15:28 25.3 °F 15.9 °F 30.38 in East 2.0 mph 2.0 mph 67% 0.00 in 49 W/m2
15:34 25.2 °F 15.8 °F 30.38 in East 1.0 mph 2.0 mph 67% 0.00 in 42 W/m2
15:40 25.3 °F 15.9 °F 30.38 in ESE 1.0 mph 2.0 mph 67% 0.00 in 46 W/m2
15:46 25.3 °F 15.9 °F 30.38 in ESE 1.0 mph 2.0 mph 67% 0.00 in 40 W/m2
15:52 25.4 °F 16.0 °F 30.38 in ENE 1.0 mph 3.0 mph 67% 0.00 in 37 W/m2
15:58 25.4 °F 16.0 °F 30.38 in ENE 1.0 mph 3.0 mph 67% 0.00 in 37 W/m2
16:04 25.5 °F 16.1 °F 30.38 in ENE 1.0 mph 2.0 mph 67% 0.00 in 30 W/m2
16:10 25.5 °F 16.1 °F 30.38 in ENE 1.0 mph 1.0 mph 67% 0.00 in 25 W/m2
16:16 25.6 °F 16.5 °F 30.37 in Calm   1.0 mph 68% 0.00 in 25 W/m2
16:22 25.5 °F 16.1 °F 30.36 in ENE 1.0 mph 2.0 mph 67% 0.00 in 19 W/m2
16:28 25.5 °F 16.1 °F 30.36 in ENE 1.0 mph 2.0 mph 67% 0.00 in 16 W/m2
16:34 25.5 °F 16.4 °F 30.36 in Calm   1.0 mph 68% 0.00 in 12 W/m2
16:40 25.4 °F 16.0 °F 30.36 in Calm     67% 0.00 in 5 W/m2
16:46 25.4 °F 16.0 °F 30.36 in ENE 1.0 mph 1.0 mph 67% 0.00 in 0 W/m2
16:52 25.4 °F 16.3 °F 30.36 in Calm   1.0 mph 68% 0.00 in 0 W/m2
16:58 25.3 °F 16.2 °F 30.36 in Calm   1.0 mph 68% 0.00 in 0 W/m2
17:04 25.3 °F 16.2 °F 30.35 in Calm     68% 0.00 in 0 W/m2
17:10 25.2 °F 16.5 °F 30.35 in Calm     69% 0.00 in 0 W/m2
17:16 25.1 °F 16.4 °F 30.35 in Calm     69% 0.00 in 0 W/m2
17:22 25.1 °F 16.7 °F 30.35 in Calm     70% 0.00 in 0 W/m2
17:28 25.1 °F 16.7 °F 30.34 in Calm     70% 0.00 in 0 W/m2
17:34 25.1 °F 17.0 °F 30.34 in Calm     71% 0.00 in 0 W/m2
17:40 25.1 °F 17.0 °F 30.34 in Calm     71% 0.00 in 0 W/m2
17:46 25.1 °F 17.3 °F 30.34 in Calm   1.0 mph 72% 0.00 in 0 W/m2
17:52 25.1 °F 17.0 °F 30.34 in ENE 1.0 mph 1.0 mph 71% 0.00 in 0 W/m2
17:58 25.1 °F 17.0 °F 30.33 in Calm   2.0 mph 71% 0.00 in 0 W/m2
18:04 25.1 °F 17.0 °F 30.33 in Calm   1.0 mph 71% 0.00 in 0 W/m2
18:10 25.1 °F 17.0 °F 30.33 in ENE 1.0 mph 1.0 mph 71% 0.00 in 0 W/m2
18:16 25.0 °F 17.2 °F 30.33 in SE 1.0 mph 2.0 mph 72% 0.00 in 0 W/m2
18:22 25.0 °F 17.2 °F 30.33 in SE 1.0 mph 1.0 mph 72% 0.00 in 0 W/m2
18:28 25.0 °F 17.2 °F 30.33 in Calm   1.0 mph 72% 0.00 in 0 W/m2
18:34 24.9 °F 17.1 °F 30.33 in Calm     72% 0.00 in 0 W/m2
18:40 24.8 °F 17.1 °F 30.33 in Calm     72% 0.00 in 0 W/m2
18:46 24.7 °F 17.3 °F 30.33 in Calm     73% 0.00 in 0 W/m2
18:52 24.6 °F 17.2 °F 30.33 in Calm     73% 0.00 in 0 W/m2
18:58 24.4 °F 17.3 °F 30.33 in Calm     74% 0.00 in 0 W/m2
19:04 24.4 °F 17.6 °F 30.33 in Calm     75% 0.00 in 0 W/m2
19:10 24.4 °F 17.6 °F 30.33 in Calm     75% 0.00 in 0 W/m2
19:16 24.2 °F 17.4 °F 30.33 in Calm     75% 0.00 in 0 W/m2
19:22 24.1 °F 17.6 °F 30.33 in Calm     76% 0.00 in 0 W/m2
19:28 24.0 °F 17.8 °F 30.33 in Calm     77% 0.00 in 0 W/m2
19:34 23.9 °F 17.7 °F 30.33 in Calm     77% 0.00 in 0 W/m2
19:40 23.8 °F 17.9 °F 30.32 in Calm     78% 0.00 in 0 W/m2
19:46 23.8 °F 17.9 °F 30.32 in Calm     78% 0.00 in 0 W/m2
19:52 23.8 °F 17.9 °F 30.32 in Calm     78% 0.00 in 0 W/m2
19:58 23.8 °F 17.9 °F 30.32 in Calm     78% 0.00 in 0 W/m2
20:04 23.9 °F 18.0 °F 30.32 in Calm     78% 0.00 in 0 W/m2
20:10 23.8 °F 17.9 °F 30.32 in Calm     78% 0.00 in 0 W/m2
20:16 23.7 °F 18.1 °F 30.32 in Calm     79% 0.00 in 0 W/m2
20:22 23.6 °F 18.0 °F 30.33 in Calm     79% 0.00 in 0 W/m2
20:28 23.5 °F 17.9 °F 30.33 in Calm     79% 0.00 in 0 W/m2
20:34 23.3 °F 18.0 °F 30.32 in Calm     80% 0.00 in 0 W/m2
20:40 23.1 °F 18.1 °F 30.33 in Calm     81% 0.00 in 0 W/m2
20:46 23.1 °F 18.1 °F 30.33 in Calm     81% 0.00 in 0 W/m2
20:52 23.0 °F 18.3 °F 30.32 in Calm     82% 0.00 in 0 W/m2
20:58 23.1 °F 18.4 °F 30.33 in Calm     82% 0.00 in 0 W/m2
21:04 23.1 °F 18.4 °F 30.32 in Calm     82% 0.00 in 0 W/m2
21:10 23.1 °F 18.4 °F 30.32 in Calm     82% 0.00 in 0 W/m2
21:16 22.9 °F 18.2 °F 30.32 in Calm     82% 0.00 in 0 W/m2
21:22 22.6 °F 17.6 °F 30.32 in Calm     81% 0.00 in 0 W/m2
21:28 22.3 °F 17.6 °F 30.32 in Calm     82% 0.00 in 0 W/m2
21:34 21.9 °F 17.2 °F 30.32 in Calm     82% 0.00 in 0 W/m2
21:40 21.6 °F 17.0 °F 30.32 in Calm     82% 0.00 in 0 W/m2
21:46 21.2 °F 16.8 °F 30.32 in Calm     83% 0.00 in 0 W/m2
21:52 20.9 °F 16.8 °F 30.32 in Calm     84% 0.00 in 0 W/m2
21:58 20.6 °F 16.5 °F 30.32 in Calm     84% 0.00 in 0 W/m2
22:04 20.4 °F 16.3 °F 30.32 in Calm     84% 0.00 in 0 W/m2
22:10 20.1 °F 16.0 °F 30.32 in Calm     84% 0.00 in 0 W/m2
22:16 19.8 °F 16.0 °F 30.31 in Calm     85% 0.00 in 0 W/m2
22:22 19.6 °F 15.8 °F 30.31 in Calm     85% 0.00 in 0 W/m2
22:28 19.3 °F 15.5 °F 30.31 in Calm     85% 0.00 in 0 W/m2
22:34 19.1 °F 15.3 °F 30.31 in Calm     85% 0.00 in 0 W/m2
22:40 18.9 °F 15.1 °F 30.31 in Calm     85% 0.00 in 0 W/m2
22:48 18.6 °F 14.8 °F 30.31 in Calm     85% 0.00 in 0 W/m2
22:54 18.6 °F 15.1 °F 30.31 in Calm     86% 0.00 in 0 W/m2
23:00 18.4 °F 14.9 °F 30.31 in Calm     86% 0.00 in 0 W/m2
23:06 18.5 °F 15.3 °F 30.31 in Calm     87% 0.00 in 0 W/m2
23:12 18.5 °F 15.3 °F 30.32 in Calm     87% 0.00 in 0 W/m2
23:18 18.6 °F 15.4 °F 30.32 in Calm     87% 0.00 in 0 W/m2
23:24 18.7 °F 15.7 °F 30.32 in Calm     88% 0.00 in 0 W/m2
23:30 18.8 °F 15.8 °F 30.32 in Calm     88% 0.00 in 0 W/m2
23:36 18.7 °F 15.7 °F 30.32 in Calm     88% 0.00 in 0 W/m2
23:42 18.6 °F 15.6 °F 30.32 in Calm     88% 0.00 in 0 W/m2
23:48 18.5 °F 15.5 °F 30.32 in Calm     88% 0.00 in 0 W/m2
23:54 18.3 °F 15.3 °F 30.32 in Calm     88% 0.00 in 0 W/m2
Country Meadow, Clay, NY, USA
Compliments of Weather Underground - 2 mb